Time;durP1;ratioP1;P1;durP2;ratioP2;P2;SDS_P1;SDS_P2;PMS_P1;PMS_P2;Temp;Humidity;BMP_temperature;BMP_pressure;BME280_temperature;BME280_humidity;BME280_pressure;Samples;Min_cycle;Max_cycle;Signal;HPM_P1;HPM_P2
2022/08/17 00:00:39;;;;;;;12.68;7.82;;;17.50;99.90;;;;;;5095305;28;20028;-59
2022/08/17 00:03:17;;;;;;;11.68;6.95;;;17.60;99.90;;;;;;5095015;28;20054;-59
2022/08/17 00:05:59;;;;;;;14.52;6.72;;;17.60;99.90;;;;;;5095217;28;20028;-59
2022/08/17 00:08:29;;;;;;;15.68;6.47;;;17.50;99.90;;;;;;5095279;28;20032;-59
2022/08/17 00:10:55;;;;;;;13.10;6.88;;;17.50;99.90;;;;;;5094988;28;20028;-59
2022/08/17 00:13:27;;;;;;;12.20;7.28;;;17.50;99.90;;;;;;5095308;28;20063;-58
2022/08/17 00:15:58;;;;;;;13.57;6.90;;;17.40;99.90;;;;;;5095196;28;20034;-59
2022/08/17 00:18:27;;;;;;;11.07;6.95;;;17.30;99.90;;;;;;5095160;28;20032;-59
2022/08/17 00:20:54;;;;;;;9.80;6.32;;;17.20;99.90;;;;;;5095518;28;20415;-59
2022/08/17 00:23:21;;;;;;;10.57;6.60;;;17.20;99.90;;;;;;5094878;28;20097;-59
2022/08/17 00:25:47;;;;;;;9.88;6.18;;;17.20;99.90;;;;;;5094896;28;20044;-59
2022/08/17 00:28:15;;;;;;;8.80;6.18;;;17.20;99.90;;;;;;5095055;28;20073;-58
2022/08/17 00:30:43;;;;;;;12.43;5.72;;;17.20;99.90;;;;;;5095018;28;20051;-59
2022/08/17 00:33:16;;;;;;;12.45;5.65;;;17.10;99.90;;;;;;5094870;28;20028;-59
2022/08/17 00:35:43;;;;;;;13.05;5.30;;;17.20;99.90;;;;;;5093748;28;20089;-58
2022/08/17 00:38:11;;;;;;;10.70;5.82;;;17.20;99.90;;;;;;5093529;28;20099;-59
2022/08/17 00:40:47;;;;;;;8.50;5.65;;;17.20;99.90;;;;;;5094828;28;20169;-59
2022/08/17 00:43:21;;;;;;;10.98;5.38;;;17.20;99.90;;;;;;5094777;28;20481;-59
2022/08/17 00:45:47;;;;;;;11.98;6.53;;;17.20;99.90;;;;;;5094537;28;20085;-58
2022/08/17 00:48:14;;;;;;;8.38;5.72;;;17.20;99.90;;;;;;5094572;28;20412;-58
2022/08/17 00:50:47;;;;;;;8.27;6.03;;;17.20;99.90;;;;;;5094555;28;20383;-58
2022/08/17 00:53:13;;;;;;;9.35;6.00;;;17.20;99.90;;;;;;5094690;28;20020;-58
2022/08/17 00:55:39;;;;;;;10.10;6.57;;;17.10;99.90;;;;;;5094513;28;20030;-58
2022/08/17 00:58:05;;;;;;;9.52;5.75;;;17.10;99.90;;;;;;5094631;28;20020;-59
2022/08/17 01:00:44;;;;;;;11.05;6.65;;;17.10;99.90;;;;;;5094613;28;20073;-59
2022/08/17 01:03:18;;;;;;;11.15;6.97;;;17.10;99.90;;;;;;5094401;28;20058;-58
2022/08/17 01:05:47;;;;;;;12.05;6.15;;;17.10;99.90;;;;;;5094407;28;20056;-59
2022/08/17 01:08:15;;;;;;;8.82;6.20;;;17.00;99.90;;;;;;5094474;28;20032;-59
2022/08/17 01:10:52;;;;;;;10.48;6.50;;;17.00;99.90;;;;;;5094007;28;20020;-58
2022/08/17 01:13:19;;;;;;;10.38;6.50;;;16.90;99.90;;;;;;5094452;28;20032;-59
2022/08/17 01:16:08;;;;;;;12.90;6.38;;;17.00;99.90;;;;;;5094299;28;20024;-58
2022/08/17 01:18:34;;;;;;;9.13;6.10;;;17.00;99.90;;;;;;5094077;28;20044;-58
2022/08/17 01:21:09;;;;;;;11.95;5.97;;;17.00;99.90;;;;;;5094537;28;20107;-58
2022/08/17 01:23:35;;;;;;;16.40;8.15;;;17.10;99.90;;;;;;5094147;28;20044;-58
2022/08/17 01:26:04;;;;;;;12.40;6.93;;;17.00;99.90;;;;;;5096226;28;20055;-58
2022/08/17 01:28:33;;;;;;;11.27;6.25;;;17.10;99.90;;;;;;5098431;28;20032;-59
2022/08/17 01:31:03;;;;;;;12.60;6.65;;;17.10;99.90;;;;;;5098278;28;20469;-58
2022/08/17 01:33:29;;;;;;;10.48;6.28;;;17.00;99.90;;;;;;5098441;28;20020;-59
2022/08/17 01:35:55;;;;;;;8.25;5.75;;;17.00;99.90;;;;;;5098206;28;20392;-58
2022/08/17 01:38:22;;;;;;;11.30;6.10;;;16.90;99.90;;;;;;5098171;28;20035;-59
2022/08/17 01:40:57;;;;;;;8.13;5.18;;;17.00;99.90;;;;;;5098139;28;20020;-59
2022/08/17 01:43:30;;;;;;;9.50;5.85;;;16.90;99.90;;;;;;5098052;28;20082;-58
2022/08/17 01:45:58;;;;;;;8.32;5.25;;;16.90;99.90;;;;;;5098100;28;20112;-58
2022/08/17 01:48:32;;;;;;;8.50;5.78;;;16.90;99.90;;;;;;5097985;28;20030;-58
2022/08/17 01:50:59;;;;;;;7.82;5.85;;;16.80;99.90;;;;;;5098045;28;20412;-59
2022/08/17 01:53:33;;;;;;;14.63;7.03;;;16.70;99.90;;;;;;5097751;28;20024;-59
2022/08/17 01:56:05;;;;;;;11.68;6.50;;;16.80;99.90;;;;;;5097901;28;20054;-59
2022/08/17 01:58:33;;;;;;;10.77;6.35;;;16.70;99.90;;;;;;5097724;28;20066;-59
2022/08/17 02:01:03;;;;;;;12.60;6.88;;;16.70;99.90;;;;;;5096459;28;20096;-58
2022/08/17 02:03:30;;;;;;;10.07;6.07;;;16.70;99.90;;;;;;5097641;28;20107;-58
2022/08/17 02:05:56;;;;;;;16.90;7.28;;;16.70;99.90;;;;;;5097397;28;20044;-59
2022/08/17 02:08:23;;;;;;;10.13;6.05;;;16.60;99.90;;;;;;5097747;28;20110;-59
2022/08/17 02:10:50;;;;;;;8.05;5.97;;;16.70;99.90;;;;;;5097030;28;20493;-58
2022/08/17 02:13:18;;;;;;;12.95;5.93;;;16.60;99.90;;;;;;5097467;28;20065;-58
2022/08/17 02:15:45;;;;;;;11.68;6.40;;;16.60;99.90;;;;;;5097505;28;20096;-59
2022/08/17 02:18:11;;;;;;;8.68;6.25;;;16.70;99.90;;;;;;5097365;28;20401;-59
2022/08/17 02:20:39;;;;;;;10.02;6.40;;;16.60;99.90;;;;;;5097326;28;20109;-58
2022/08/17 02:23:07;;;;;;;9.40;5.93;;;16.60;99.90;;;;;;5097079;28;20089;-58
2022/08/17 02:25:35;;;;;;;12.15;5.68;;;16.70;99.90;;;;;;5097110;28;20385;-59
2022/08/17 02:28:01;;;;;;;9.20;6.30;;;16.70;99.90;;;;;;5097128;28;20470;-59
2022/08/17 02:30:27;;;;;;;16.67;7.28;;;16.60;99.90;;;;;;5097207;28;20093;-58
2022/08/17 02:32:54;;;;;;;10.27;6.25;;;16.60;99.90;;;;;;5097051;28;20028;-58
2022/08/17 02:35:21;;;;;;;10.45;5.90;;;16.60;99.90;;;;;;5097094;28;20058;-59
2022/08/17 02:37:48;;;;;;;9.50;5.40;;;16.60;99.90;;;;;;5095742;28;20085;-59
2022/08/17 02:40:15;;;;;;;8.52;6.38;;;16.70;99.90;;;;;;5097196;28;20377;-58
2022/08/17 02:42:42;;;;;;;9.27;6.43;;;16.70;99.90;;;;;;5097241;28;20024;-58
2022/08/17 02:45:13;;;;;;;9.05;6.35;;;16.70;99.90;;;;;;5096783;28;20103;-58
2022/08/17 02:47:40;;;;;;;10.63;6.00;;;16.70;99.90;;;;;;5096836;28;20480;-58
2022/08/17 02:50:09;;;;;;;8.75;5.80;;;16.60;99.90;;;;;;5096878;28;20028;-58
2022/08/17 02:52:40;;;;;;;8.50;5.78;;;16.60;99.90;;;;;;5096799;28;20035;-58
2022/08/17 02:55:10;;;;;;;13.48;6.28;;;16.70;99.90;;;;;;5096659;28;20032;-58
2022/08/17 02:57:36;;;;;;;8.50;6.30;;;16.70;99.90;;;;;;5096815;28;20029;-58
2022/08/17 03:00:12;;;;;;;12.05;6.22;;;16.70;99.90;;;;;;5096644;28;20036;-58
2022/08/17 03:02:39;;;;;;;8.05;5.22;;;16.80;99.90;;;;;;5097146;28;20036;-58
2022/08/17 03:05:11;;;;;;;7.22;5.55;;;16.70;99.90;;;;;;5096472;28;20028;-58
2022/08/17 03:07:37;;;;;;;8.88;5.88;;;16.70;99.90;;;;;;5096467;28;20081;-58
2022/08/17 03:10:05;;;;;;;9.57;5.82;;;16.70;99.90;;;;;;5096043;28;20012;-58
2022/08/17 03:12:33;;;;;;;12.73;6.90;;;16.60;99.90;;;;;;5096432;28;20028;-58
2022/08/17 03:15:06;;;;;;;10.93;6.25;;;16.60;99.90;;;;;;5096603;28;20039;-58
2022/08/17 03:17:32;;;;;;;11.25;6.57;;;16.60;99.90;;;;;;5095101;28;20099;-58
2022/08/17 03:19:58;;;;;;;8.23;5.95;;;16.60;99.90;;;;;;5096397;28;20058;-58
2022/08/17 03:22:26;;;;;;;13.63;6.50;;;16.60;99.90;;;;;;5096084;28;20044;-58
2022/08/17 03:24:52;;;;;;;11.60;6.88;;;16.50;99.90;;;;;;5095965;28;20517;-58
2022/08/17 03:27:18;;;;;;;10.73;6.13;;;16.60;99.90;;;;;;5096119;28;20423;-59
2022/08/17 03:29:44;;;;;;;8.45;6.03;;;16.60;99.90;;;;;;5094923;28;20103;-58
2022/08/17 03:32:12;;;;;;;10.77;6.50;;;16.60;99.90;;;;;;5096222;28;20020;-58
2022/08/17 03:34:38;;;;;;;9.93;6.68;;;16.60;99.90;;;;;;5096221;28;20028;-58
2022/08/17 03:37:04;;;;;;;9.00;6.78;;;16.50;99.90;;;;;;5095873;28;20034;-59
2022/08/17 03:39:30;;;;;;;11.98;6.60;;;16.60;99.90;;;;;;5095742;28;20024;-58
2022/08/17 03:42:12;;;;;;;12.20;6.72;;;16.60;99.90;;;;;;5095748;28;20031;-58
2022/08/17 03:44:39;;;;;;;13.75;7.43;;;16.50;99.90;;;;;;5095573;28;20020;-59
2022/08/17 03:58:03;;;;;;;11.27;6.68;;;16.60;99.90;;;;;;5095546;28;20032;-58
2022/08/17 04:00:29;;;;;;;10.75;6.60;;;16.60;99.90;;;;;;5095587;28;20028;-58
2022/08/17 04:02:56;;;;;;;9.75;6.57;;;16.60;99.90;;;;;;5095434;28;20028;-58
2022/08/17 04:05:21;;;;;;;12.18;7.25;;;16.60;99.90;;;;;;5095220;28;20038;-58
2022/08/17 04:07:47;;;;;;;9.15;6.40;;;16.60;99.90;;;;;;5095082;28;20040;-58
2022/08/17 04:10:13;;;;;;;10.90;7.03;;;16.60;99.90;;;;;;5094827;28;20024;-58
2022/08/17 04:12:57;;;;;;;11.73;7.18;;;16.60;99.90;;;;;;5095204;28;20020;-58
2022/08/17 04:15:23;;;;;;;10.73;6.05;;;16.60;99.90;;;;;;5095159;28;20035;-58
2022/08/17 04:17:50;;;;;;;11.40;6.53;;;16.60;99.90;;;;;;5095186;28;20028;-58
2022/08/17 04:20:18;;;;;;;11.10;7.35;;;16.60;99.90;;;;;;5095057;28;20420;-58
2022/08/17 04:23:04;;;;;;;10.70;7.38;;;16.60;99.90;;;;;;5095012;28;20048;-58
2022/08/17 04:25:32;;;;;;;11.30;6.50;;;16.70;99.90;;;;;;5094867;28;20416;-58
2022/08/17 04:28:00;;;;;;;14.93;7.57;;;16.70;99.90;;;;;;5094868;28;20044;-58
2022/08/17 04:30:30;;;;;;;15.32;7.38;;;16.70;99.90;;;;;;5095075;28;20024;-58
2022/08/17 04:33:04;;;;;;;16.95;7.65;;;16.80;99.90;;;;;;5094896;28;20516;-58
2022/08/17 04:35:33;;;;;;;12.90;6.93;;;16.90;99.90;;;;;;5094900;28;20107;-58
2022/08/17 04:37:59;;;;;;;14.32;7.95;;;16.80;99.90;;;;;;5094735;28;20397;-58
2022/08/17 04:43:15;;;;;;;12.13;7.00;;;16.90;99.90;;;;;;5094591;28;20116;-58
2022/08/17 04:45:47;;;;;;;11.38;7.25;;;17.00;99.90;;;;;;5094621;28;20107;-58
2022/08/17 04:48:13;;;;;;;10.23;6.95;;;17.10;99.90;;;;;;5094620;28;20020;-58
2022/08/17 04:50:44;;;;;;;14.18;7.40;;;17.10;99.90;;;;;;5094512;28;20043;-58
2022/08/17 04:53:11;;;;;;;11.00;7.22;;;17.20;99.90;;;;;;5094522;28;20070;-58
2022/08/17 04:55:38;;;;;;;10.48;6.80;;;17.20;99.90;;;;;;5094385;28;20078;-58
2022/08/17 04:58:04;;;;;;;14.27;8.07;;;17.30;99.90;;;;;;5093341;28;20032;-58
2022/08/17 05:00:31;;;;;;;13.80;7.63;;;17.40;99.90;;;;;;5092423;28;20062;-58
2022/08/17 05:02:57;;;;;;;14.68;7.93;;;17.40;99.90;;;;;;5093065;28;20059;-58
2022/08/17 05:05:32;;;;;;;14.65;7.25;;;17.50;99.90;;;;;;5094249;28;20031;-58
2022/08/17 05:08:01;;;;;;;12.43;7.70;;;17.60;99.90;;;;;;5094414;28;20029;-58
2022/08/17 05:10:30;;;;;;;17.00;7.97;;;17.70;99.90;;;;;;5093706;28;20032;-58
2022/08/17 05:13:02;;;;;;;22.30;9.75;;;17.70;99.90;;;;;;5071656;28;20017;-58
2022/08/17 05:15:29;;;;;;;18.92;9.00;;;17.80;99.90;;;;;;5072009;28;20031;-58
2022/08/17 05:17:55;;;;;;;17.40;8.90;;;17.90;99.90;;;;;;5070084;28;20039;-58
2022/08/17 05:20:21;;;;;;;18.50;8.80;;;18.00;99.90;;;;;;5072892;28;20032;-58
2022/08/17 05:22:53;;;;;;;18.00;8.27;;;18.10;99.90;;;;;;5069243;28;20056;-59
2022/08/17 05:25:31;;;;;;;17.30;9.30;;;18.30;99.90;;;;;;5063154;28;20039;-58
2022/08/17 05:27:58;;;;;;;19.42;8.63;;;18.30;99.90;;;;;;5072116;28;20034;-58
2022/08/17 05:30:24;;;;;;;21.73;9.65;;;18.50;99.90;;;;;;5073838;28;20035;-58
2022/08/17 05:33:01;;;;;;;19.77;9.15;;;18.40;99.90;;;;;;5069565;28;20463;-58
2022/08/17 05:35:30;;;;;;;18.67;9.00;;;18.60;99.90;;;;;;5073807;28;20469;-58
2022/08/17 05:37:56;;;;;;;22.02;9.25;;;18.70;99.90;;;;;;5063787;28;20021;-59
2022/08/17 05:40:24;;;;;;;14.15;8.63;;;18.90;99.90;;;;;;5069549;28;20029;-59
2022/08/17 05:43:02;;;;;;;13.52;8.55;;;18.90;99.90;;;;;;5061940;28;20032;-58
2022/08/17 05:45:29;;;;;;;20.63;9.73;;;18.90;99.90;;;;;;5065465;28;20045;-58
2022/08/17 05:47:55;;;;;;;14.93;8.55;;;19.00;99.90;;;;;;5059148;28;20478;-59
2022/08/17 05:50:26;;;;;;;20.15;10.43;;;19.20;99.90;;;;;;5067837;28;20056;-58
2022/08/17 05:52:58;;;;;;;15.93;8.32;;;19.30;99.90;;;;;;5073231;28;20391;-59
2022/08/17 05:55:39;;;;;;;20.08;8.93;;;19.50;99.90;;;;;;5071253;28;20036;-58
2022/08/17 05:58:31;;;;;;;16.40;10.27;;;19.50;99.90;;;;;;5074041;28;20067;-58
2022/08/17 06:01:09;;;;;;;17.33;9.40;;;19.60;99.90;;;;;;5073742;28;20029;-58
2022/08/17 06:03:53;;;;;;;21.20;10.05;;;19.80;99.90;;;;;;5073563;28;20024;-58
2022/08/17 06:06:38;;;;;;;16.38;8.70;;;19.90;99.90;;;;;;5073526;28;20025;-58
2022/08/17 06:09:27;;;;;;;13.85;9.15;;;20.00;99.90;;;;;;5073760;28;20031;-58
2022/08/17 06:12:12;;;;;;;21.20;9.82;;;20.10;99.90;;;;;;5055079;28;20029;-58
2022/08/17 06:14:58;;;;;;;13.57;8.65;;;20.30;99.90;;;;;;5057095;28;20437;-59
2022/08/17 06:17:26;;;;;;;22.55;9.85;;;20.50;99.90;;;;;;5056991;28;20493;-59
2022/08/17 06:19:57;;;;;;;26.98;10.10;;;20.60;99.90;;;;;;5071648;28;20035;-58
2022/08/17 06:22:32;;;;;;;18.05;9.43;;;20.80;99.90;;;;;;5076475;28;20319;-59
2022/08/17 06:25:12;;;;;;;15.38;9.05;;;20.90;99.90;;;;;;5076892;28;20028;-59
2022/08/17 06:27:57;;;;;;;;;;;21.10;99.90;;;;;;5068000;28;20048;-58
2022/08/17 06:30:26;;;;;;;18.42;8.98;;;21.30;99.90;;;;;;5066529;28;20378;-58
2022/08/17 06:32:58;;;;;;;16.10;9.00;;;21.40;99.90;;;;;;5070058;28;20029;-59
2022/08/17 06:35:38;;;;;;;17.40;8.77;;;21.60;99.90;;;;;;5075577;28;20020;-59
2022/08/17 06:38:31;;;;;;;15.88;8.82;;;21.90;99.90;;;;;;5073242;28;20036;-58
2022/08/17 06:41:14;;;;;;;16.65;8.13;;;22.10;99.90;;;;;;5067828;28;20033;-59
2022/08/17 06:43:47;;;;;;;13.65;8.10;;;22.30;99.90;;;;;;5072931;28;20135;-58
2022/08/17 06:46:32;;;;;;;18.00;8.30;;;22.70;99.90;;;;;;5068828;28;20035;-58
2022/08/17 06:49:18;;;;;;;15.60;8.77;;;22.90;99.90;;;;;;5072589;28;20037;-59
2022/08/17 06:52:11;;;;;;;15.07;7.78;;;23.10;99.90;;;;;;5070838;28;20024;-59
2022/08/17 06:55:01;;;;;;;13.38;7.47;;;23.30;99.90;;;;;;5064231;28;20024;-59
2022/08/17 06:57:34;;;;;;;19.02;8.00;;;23.60;99.90;;;;;;5056969;28;20036;-59
2022/08/17 07:00:15;;;;;;;22.33;7.93;;;23.80;99.90;;;;;;5056956;28;20048;-59
2022/08/17 07:03:08;;;;;;;17.92;7.28;;;24.10;99.90;;;;;;5073465;28;20013;-59
2022/08/17 07:05:41;;;;;;;16.42;6.40;;;24.40;99.20;;;;;;5074678;28;20060;-59
2022/08/17 07:08:44;;;;;;;20.88;7.25;;;24.70;97.90;;;;;;5076515;28;20025;-59
2022/08/17 07:11:38;;;;;;;16.75;7.60;;;24.80;96.50;;;;;;5076540;28;20120;-59
2022/08/17 07:14:12;;;;;;;26.35;7.63;;;25.10;95.60;;;;;;5057321;28;20025;-59
2022/08/17 07:17:09;;;;;;;22.27;8.18;;;25.40;91.80;;;;;;5075412;28;20032;-59
2022/08/17 07:19:41;;;;;;;18.58;7.80;;;25.70;93.00;;;;;;5070159;28;20150;-59
2022/08/17 07:22:33;;;;;;;15.70;7.90;;;26.10;91.30;;;;;;5076775;28;20516;-59
2022/08/17 07:25:03;;;;;;;21.55;8.68;;;26.70;88.50;;;;;;5115835;27;20043;-59
2022/08/17 07:27:39;;;;;;;18.77;8.93;;;26.90;81.80;;;;;;5099557;27;20031;-59
2022/08/17 07:30:19;;;;;;;36.25;13.82;;;26.90;81.20;;;;;;5076296;28;20496;-59
2022/08/17 07:32:50;;;;;;;28.38;12.43;;;27.20;81.70;;;;;;5075196;28;20032;-59
2022/08/17 07:35:28;;;;;;;35.03;11.63;;;27.70;82.10;;;;;;5074321;28;20032;-59
2022/08/17 07:38:40;;;;;;;31.65;10.40;;;27.10;78.60;;;;;;5073880;28;20048;-59
2022/08/17 07:41:09;;;;;;;20.55;9.57;;;27.50;81.50;;;;;;5070075;28;20033;-60
2022/08/17 07:43:38;;;;;;;24.02;9.38;;;27.90;75.90;;;;;;5067061;28;20059;-59
2022/08/17 07:49:02;;;;;;;19.45;8.73;;;28.00;76.90;;;;;;5067037;28;20031;-59
2022/08/17 07:51:32;;;;;;;17.58;8.48;;;28.20;73.10;;;;;;5075376;28;20082;-60
2022/08/17 07:54:21;;;;;;;;;;;28.70;70.80;;;;;;5076149;28;20032;-60
2022/08/17 07:56:59;;;;;;;18.67;8.85;;;29.10;69.40;;;;;;5066254;28;19908;-60
2022/08/17 07:59:35;;;;;;;21.92;8.90;;;29.50;67.70;;;;;;5067937;28;20029;-60
2022/08/17 08:02:15;;;;;;;16.02;7.18;;;29.30;69.00;;;;;;5074501;28;20516;-60
2022/08/17 08:04:43;;;;;;;;;;;29.20;67.10;;;;;;5075424;28;20457;-60
2022/08/17 08:07:19;;;;;;;12.68;6.03;;;29.50;66.60;;;;;;5074843;28;19908;-60
2022/08/17 08:10:04;;;;;;;13.00;6.55;;;29.80;66.20;;;;;;5077385;28;20017;-60
2022/08/17 08:12:35;;;;;;;16.80;6.38;;;30.10;63.70;;;;;;5074393;28;20028;-60
2022/08/17 08:15:17;;;;;;;11.98;6.03;;;30.10;61.10;;;;;;5063232;28;20032;-60
2022/08/17 08:17:56;;;;;;;11.75;6.50;;;30.10;63.40;;;;;;5066004;28;20056;-60
2022/08/17 08:20:48;;;;;;;14.43;7.63;;;30.40;60.60;;;;;;5068342;28;20386;-60
2022/08/17 08:23:35;;;;;;;12.20;5.88;;;30.30;59.70;;;;;;5055970;28;20029;-60
2022/08/17 08:26:26;;;;;;;12.65;6.38;;;30.80;59.60;;;;;;5072881;28;20070;-60
2022/08/17 08:28:51;;;;;;;;;;;31.10;58.70;;;;;;5074946;28;20044;-60
2022/08/17 08:31:32;;;;;;;16.60;6.72;;;31.50;58.90;;;;;;5074357;28;19970;-60
2022/08/17 08:34:17;;;;;;;14.55;5.88;;;31.70;56.80;;;;;;5066412;28;20024;-60
2022/08/17 08:37:15;;;;;;;17.95;6.25;;;31.50;57.30;;;;;;5054330;28;20051;-60
2022/08/17 08:39:52;;;;;;;16.25;6.72;;;31.80;55.90;;;;;;5062755;28;20094;-60
2022/08/17 08:42:31;;;;;;;17.92;8.80;;;32.20;56.60;;;;;;5066511;28;20024;-60
2022/08/17 08:45:00;;;;;;;18.52;7.28;;;32.10;56.20;;;;;;5064405;28;20536;-60
2022/08/17 08:47:39;;;;;;;16.15;7.32;;;32.50;56.60;;;;;;5074120;28;20017;-60
2022/08/17 08:50:16;;;;;;;14.10;7.30;;;32.50;53.20;;;;;;5074131;28;20040;-60
2022/08/17 08:53:07;;;;;;;18.27;6.53;;;32.60;53.50;;;;;;5068478;28;20028;-60
2022/08/17 08:55:45;;;;;;;15.10;6.53;;;32.80;55.50;;;;;;5068282;28;20043;-60
2022/08/17 08:58:26;;;;;;;18.25;7.93;;;33.00;54.00;;;;;;5073795;28;20025;-60
2022/08/17 09:00:56;;;;;;;18.60;7.97;;;32.90;53.20;;;;;;5059863;28;20534;-60
2022/08/17 09:03:40;;;;;;;18.87;8.60;;;32.80;53.20;;;;;;5064373;28;20381;-60
2022/08/17 09:06:29;;;;;;;14.85;8.15;;;33.00;52.80;;;;;;5066375;28;20025;-60
2022/08/17 09:09:23;;;;;;;22.87;8.87;;;33.00;49.90;;;;;;5071649;28;20020;-60
2022/08/17 09:12:02;;;;;;;16.00;8.80;;;33.00;53.50;;;;;;5077859;28;20030;-60
2022/08/17 09:14:36;;;;;;;18.67;9.15;;;33.40;53.70;;;;;;5059716;28;20096;-60
2022/08/17 09:17:42;;;;;;;14.35;8.27;;;33.60;50.50;;;;;;5060650;28;20025;-60
2022/08/17 09:20:24;;;;;;;18.63;7.97;;;33.90;53.40;;;;;;5063080;28;20067;-60
2022/08/17 09:23:02;;;;;;;13.07;7.28;;;33.50;49.70;;;;;;5068655;28;20037;-60
2022/08/17 09:25:32;;;;;;;15.15;7.50;;;33.30;50.00;;;;;;5066291;28;20434;-60
2022/08/17 09:28:06;;;;;;;14.80;7.57;;;32.90;49.30;;;;;;5070142;28;20024;-61
2022/08/17 09:30:39;;;;;;;10.30;6.60;;;33.30;50.50;;;;;;5061315;28;20035;-60
2022/08/17 09:33:10;;;;;;;21.45;9.45;;;33.90;51.00;;;;;;5095988;28;20031;-60
2022/08/17 09:36:05;;;;;;;20.92;7.82;;;33.80;48.90;;;;;;5059724;28;20063;-60
2022/08/17 09:38:43;;;;;;;11.90;6.70;;;33.90;48.00;;;;;;5062651;28;20041;-60
2022/08/17 09:41:19;;;;;;;15.25;6.80;;;34.40;48.30;;;;;;5073642;28;20025;-60
2022/08/17 09:44:01;;;;;;;12.93;6.20;;;34.20;48.20;;;;;;5063638;28;20037;-60
2022/08/17 09:46:33;;;;;;;17.15;7.80;;;34.40;47.00;;;;;;5073043;28;20033;-60
2022/08/17 09:49:10;;;;;;;11.13;6.13;;;34.50;48.90;;;;;;5070086;28;20024;-60
2022/08/17 09:51:53;;;;;;;11.23;6.45;;;34.40;44.20;;;;;;5062328;28;20031;-60
2022/08/17 09:54:29;;;;;;;10.57;6.43;;;34.40;44.70;;;;;;5065593;28;20052;-60
2022/08/17 09:56:55;;;;;;;14.95;6.60;;;34.30;46.90;;;;;;5077027;28;20040;-60
2022/08/17 09:59:44;;;;;;;16.40;7.28;;;34.30;45.90;;;;;;5068991;28;20032;-60
2022/08/17 10:02:23;;;;;;;12.38;6.95;;;34.40;46.70;;;;;;5075456;28;20147;-60
2022/08/17 10:05:27;;;;;;;12.55;5.38;;;34.50;46.80;;;;;;5071079;28;20089;-60
2022/08/17 10:08:07;;;;;;;10.63;4.45;;;34.50;43.60;;;;;;5049285;28;20049;-60
2022/08/17 10:10:47;;;;;;;7.20;4.03;;;34.70;43.00;;;;;;5050050;28;20131;-61
2022/08/17 10:13:34;;;;;;;7.97;4.18;;;34.20;43.10;;;;;;5052160;28;20032;-61
2022/08/17 10:16:06;;;;;;;9.02;4.40;;;34.20;42.00;;;;;;5042914;28;20044;-61
2022/08/17 10:19:00;;;;;;;8.02;4.40;;;34.50;42.60;;;;;;5046062;28;20809;-60
2022/08/17 10:27:00;;;;;;;7.47;3.78;;;34.40;42.50;;;;;;5042286;28;20029;-61
2022/08/17 10:29:45;;;;;;;5.60;3.55;;;34.80;40.40;;;;;;5040065;28;20048;-60
2022/08/17 10:32:16;;;;;;;9.15;4.50;;;34.60;39.60;;;;;;5043330;28;20064;-60
2022/08/17 10:34:56;;;;;;;7.75;3.83;;;34.80;42.20;;;;;;5027235;28;20033;-60
2022/08/17 10:37:27;;;;;;;22.15;3.83;;;35.10;40.30;;;;;;5044094;28;20025;-61
2022/08/17 10:40:33;;;;;;;11.40;4.40;;;35.00;40.90;;;;;;5043342;28;20081;-60
2022/08/17 10:43:21;;;;;;;7.47;4.25;;;35.20;40.40;;;;;;5072600;28;20041;-60
2022/08/17 10:46:05;;;;;;;5.32;3.40;;;35.40;40.50;;;;;;5076266;28;20108;-60
2022/08/17 10:48:37;;;;;;;11.05;4.22;;;35.30;40.00;;;;;;5067989;28;20027;-61
2022/08/17 10:51:22;;;;;;;8.27;4.07;;;35.50;41.40;;;;;;5064608;28;20027;-60
2022/08/17 10:53:49;;;;;;;8.10;4.32;;;35.20;39.40;;;;;;5060485;28;20056;-60
2022/08/17 10:56:17;;;;;;;7.30;4.03;;;35.30;40.90;;;;;;5072755;28;20478;-61
2022/08/17 10:58:53;;;;;;;8.70;4.13;;;35.50;41.50;;;;;;5073546;28;20028;-60
2022/08/17 11:01:32;;;;;;;5.53;4.07;;;35.10;39.40;;;;;;5070303;28;20033;-61
2022/08/17 11:04:24;;;;;;;7.38;3.40;;;35.40;39.80;;;;;;5069721;28;20056;-61
2022/08/17 11:07:00;;;;;;;5.60;3.50;;;35.10;40.70;;;;;;5069113;28;20032;-61
2022/08/17 11:10:03;;;;;;;11.52;3.90;;;35.00;41.10;;;;;;5069820;28;20048;-61
2022/08/17 11:12:50;;;;;;;17.45;4.97;;;35.50;41.60;;;;;;5065634;28;20111;-61
2022/08/17 11:15:25;;;;;;;5.65;3.80;;;35.20;41.00;;;;;;5071712;28;20037;-61
2022/08/17 11:18:08;;;;;;;7.32;4.10;;;35.10;40.20;;;;;;5070311;28;20123;-61
2022/08/17 11:20:52;;;;;;;11.70;3.70;;;35.10;40.80;;;;;;5071552;28;20039;-61
2022/08/17 11:23:38;;;;;;;12.95;5.07;;;35.60;40.40;;;;;;5074976;28;20436;-61
2022/08/17 11:26:24;;;;;;;6.15;3.72;;;35.40;39.80;;;;;;5071871;28;20429;-61
2022/08/17 11:28:55;;;;;;;6.30;3.15;;;35.70;38.70;;;;;;5074900;28;20040;-61
2022/08/17 11:31:38;;;;;;;8.60;3.65;;;35.80;39.40;;;;;;5072551;28;20086;-61
2022/08/17 11:34:07;;;;;;;11.55;4.50;;;36.10;39.10;;;;;;5074932;28;20024;-61
2022/08/17 11:36:44;;;;;;;8.93;4.32;;;36.40;38.90;;;;;;5074596;28;20033;-61
2022/08/17 11:39:35;;;;;;;10.27;4.53;;;36.40;37.60;;;;;;5075358;28;20425;-61
2022/08/17 11:42:19;;;;;;;5.80;3.20;;;36.30;38.00;;;;;;5072428;28;20434;-60
2022/08/17 11:45:08;;;;;;;13.13;4.65;;;36.20;37.20;;;;;;5071698;28;20025;-61
2022/08/17 11:53:49;;;;;;;12.38;4.65;;;35.60;36.60;;;;;;5075430;28;20032;-60
2022/08/17 11:56:40;;;;;;;5.53;3.00;;;36.10;35.80;;;;;;5072214;28;20371;-61
2022/08/17 11:59:31;;;;;;;5.80;3.05;;;35.80;35.70;;;;;;5065705;28;20039;-61
2022/08/17 12:01:59;;;;;;;7.32;3.30;;;36.00;36.60;;;;;;5074570;28;20533;-61
2022/08/17 12:04:33;;;;;;;8.75;3.75;;;36.50;35.50;;;;;;5074422;28;20425;-61
2022/08/17 12:07:20;;;;;;;7.45;3.67;;;36.60;33.90;;;;;;5073424;28;20056;-61
2022/08/17 12:09:49;;;;;;;10.40;3.13;;;36.50;32.90;;;;;;5070991;28;20020;-61
2022/08/17 12:12:28;;;;;;;8.38;4.10;;;36.50;34.80;;;;;;5080509;28;20623;-61
2022/08/17 12:14:56;;;;;;;6.03;3.72;;;36.50;34.50;;;;;;5064719;28;20029;-61
2022/08/17 12:17:31;;;;;;;7.88;4.20;;;36.60;34.40;;;;;;5074669;28;20043;-61
2022/08/17 12:20:27;;;;;;;4.63;3.33;;;36.50;35.60;;;;;;5072823;28;20037;-61
2022/08/17 12:23:02;;;;;;;3.80;3.15;;;36.50;34.70;;;;;;5071725;28;20506;-61
2022/08/17 12:25:55;;;;;;;4.00;2.88;;;36.80;33.80;;;;;;5074220;28;20036;-61
2022/08/17 12:28:28;;;;;;;6.10;3.25;;;37.30;33.40;;;;;;5054282;28;20044;-61
2022/08/17 12:30:59;;;;;;;4.38;3.53;;;36.80;34.80;;;;;;5054716;28;20074;-61
2022/08/17 12:33:27;;;;;;;8.32;3.28;;;36.60;31.80;;;;;;5054585;28;20471;-61
2022/08/17 12:36:14;;;;;;;3.70;2.70;;;36.80;32.60;;;;;;5055057;28;20035;-61
2022/08/17 12:38:50;;;;;;;13.77;3.50;;;36.90;33.30;;;;;;5055744;28;20036;-61
2022/08/17 12:41:29;;;;;;;8.18;3.75;;;37.30;33.60;;;;;;5064139;28;20039;-61
2022/08/17 12:44:00;;;;;;;9.05;3.88;;;37.10;31.70;;;;;;5067755;28;20029;-61
2022/08/17 12:46:45;;;;;;;7.38;3.45;;;37.30;32.20;;;;;;5067823;28;20039;-61
2022/08/17 12:49:27;;;;;;;8.43;4.35;;;37.40;31.20;;;;;;5065344;28;20025;-61
2022/08/17 12:52:03;;;;;;;7.22;3.30;;;36.60;31.50;;;;;;5072883;28;20043;-61
2022/08/17 12:54:37;;;;;;;5.15;3.20;;;35.80;34.00;;;;;;5073896;28;20032;-61
2022/08/17 12:57:10;;;;;;;9.52;4.03;;;36.60;34.70;;;;;;5074002;28;20040;-61
2022/08/17 12:59:40;;;;;;;8.85;4.70;;;36.70;32.90;;;;;;5074106;28;20435;-61
2022/08/17 13:02:18;;;;;;;8.82;4.47;;;36.30;34.00;;;;;;5074574;28;20024;-61
2022/08/17 13:04:44;;;;;;;6.55;3.85;;;36.80;35.00;;;;;;5073574;28;20028;-61
2022/08/17 13:07:11;;;;;;;6.55;3.78;;;36.80;35.60;;;;;;5073094;28;20060;-61
2022/08/17 13:09:36;;;;;;;9.48;4.18;;;37.00;33.50;;;;;;5072578;28;20028;-61
2022/08/17 13:12:03;;;;;;;9.23;4.47;;;37.20;35.00;;;;;;5074416;28;20084;-61
2022/08/17 13:14:29;;;;;;;7.00;4.40;;;37.00;33.20;;;;;;5072328;28;20082;-61
2022/08/17 13:17:00;;;;;;;8.07;4.78;;;36.20;32.40;;;;;;5064749;28;20060;-61
2022/08/17 13:19:30;;;;;;;15.23;4.97;;;36.20;34.20;;;;;;5070453;28;20032;-61
2022/08/17 13:21:58;;;;;;;11.73;6.05;;;36.40;34.90;;;;;;5069573;28;20071;-61
2022/08/17 13:24:32;;;;;;;12.18;5.20;;;36.40;34.10;;;;;;5072522;28;20086;-61
2022/08/17 13:26:58;;;;;;;7.57;4.32;;;36.20;34.50;;;;;;5078634;28;20033;-61
2022/08/17 13:29:37;;;;;;;10.90;4.93;;;36.30;34.50;;;;;;5077817;28;20055;-61
2022/08/17 13:32:05;;;;;;;8.85;5.15;;;36.00;36.00;;;;;;5078224;28;20020;-61
2022/08/17 13:34:41;;;;;;;11.70;5.88;;;35.90;35.80;;;;;;5077873;28;20051;-61
2022/08/17 13:37:16;;;;;;;13.82;6.07;;;35.80;35.20;;;;;;5077898;28;20485;-60
2022/08/17 13:39:43;;;;;;;11.10;4.93;;;35.60;37.10;;;;;;5077673;28;20051;-61
2022/08/17 13:42:31;;;;;;;11.70;5.35;;;35.90;38.00;;;;;;5077742;28;20378;-61
2022/08/17 13:44:57;;;;;;;32.55;9.25;;;36.10;34.60;;;;;;5077496;28;20044;-61
2022/08/17 13:47:24;;;;;;;15.55;4.85;;;35.50;35.40;;;;;;5077813;28;20028;-60